createdAt,value
2022-09-27T00:00:56.744Z,3.3
2022-09-27T00:02:05.400Z,1.9
2022-09-27T00:03:13.852Z,1.9
2022-09-27T00:04:22.167Z,1.9
2022-09-27T00:05:30.799Z,1.9
2022-09-27T00:06:40.968Z,1.9
2022-09-27T00:07:47.592Z,1.9
2022-09-27T00:08:56.216Z,2.6
2022-09-27T00:10:04.617Z,2.6
2022-09-27T00:11:13.027Z,2.6
2022-09-27T00:12:21.610Z,2.4
2022-09-27T00:13:30.029Z,2.4
2022-09-27T00:14:38.439Z,2.4
2022-09-27T00:15:47.074Z,2.2
2022-09-27T00:16:55.442Z,2.2
2022-09-27T00:18:03.878Z,2.2
2022-09-27T00:19:12.524Z,1.5
2022-09-27T00:20:20.899Z,1.5
2022-09-27T00:21:29.300Z,1.5
2022-09-27T00:22:37.947Z,1.9
2022-09-27T00:23:46.314Z,1.9
2022-09-27T00:24:54.715Z,1.9
2022-09-27T00:26:03.322Z,1.3
2022-09-27T00:27:11.716Z,1.3
2022-09-27T00:28:20.124Z,1.3
2022-09-27T00:29:28.752Z,2
2022-09-27T00:30:37.165Z,2
2022-09-27T00:31:45.535Z,2
2022-09-27T00:32:54.163Z,1.4
2022-09-27T00:34:02.541Z,1.4
2022-09-27T00:35:10.950Z,1.4
2022-09-27T00:36:19.587Z,1
2022-09-27T00:37:27.956Z,1
2022-09-27T00:38:36.385Z,1
2022-09-27T00:39:44.964Z,1.4
2022-09-27T00:40:53.421Z,1.4
2022-09-27T00:42:01.795Z,1.4
2022-09-27T00:43:10.376Z,1.8
2022-09-27T00:44:18.767Z,1.8
2022-09-27T00:45:27.191Z,1.8
2022-09-27T00:46:35.845Z,1.9
2022-09-27T00:47:44.196Z,1.9
2022-09-27T00:48:52.594Z,1.9
2022-09-27T00:50:01.257Z,1.8
2022-09-27T00:51:09.645Z,1.8
2022-09-27T00:52:18.024Z,1.8
2022-09-27T00:53:26.632Z,1.6
2022-09-27T00:54:35.072Z,1.6
2022-09-27T00:55:43.464Z,1.6
2022-09-27T00:56:52.060Z,1.7
2022-09-27T00:58:00.491Z,1.7
2022-09-27T00:59:08.935Z,1.7
2022-09-27T01:00:17.494Z,1.5
2022-09-27T01:01:25.908Z,1.5
2022-09-27T01:02:34.352Z,1.5
2022-09-27T01:03:42.895Z,2
2022-09-27T01:04:51.298Z,2
2022-09-27T01:05:59.682Z,2
2022-09-27T01:07:08.285Z,1.2
2022-09-27T01:08:16.697Z,1.2
2022-09-27T01:09:25.116Z,1.2
2022-09-27T01:10:33.764Z,1.2
2022-09-27T01:11:42.118Z,1.2
2022-09-27T01:12:50.508Z,1.2
2022-09-27T01:13:59.110Z,1.6
2022-09-27T01:15:07.508Z,1.6
2022-09-27T01:16:15.955Z,1.6
2022-09-27T01:17:24.517Z,2
2022-09-27T01:18:32.897Z,2
2022-09-27T01:19:41.340Z,2
2022-09-27T01:20:49.918Z,1.1
2022-09-27T01:21:58.324Z,1.1
2022-09-27T01:23:06.689Z,1.1
2022-09-27T01:24:15.300Z,1.3
2022-09-27T01:25:23.726Z,1.3
2022-09-27T01:26:32.133Z,1.3
2022-09-27T01:27:40.708Z,1.3
2022-09-27T01:28:49.131Z,1.3
2022-09-27T01:29:57.515Z,1.3
2022-09-27T01:31:06.218Z,0.5
2022-09-27T01:32:14.492Z,0.5
2022-09-27T01:33:22.916Z,0.5
2022-09-27T01:34:31.537Z,1.1
2022-09-27T01:35:39.925Z,1.1
2022-09-27T01:36:48.354Z,1.1
2022-09-27T01:37:56.953Z,1.5
2022-09-27T01:39:05.334Z,1.5
2022-09-27T01:40:13.795Z,1.5
2022-09-27T01:41:22.366Z,0.6
2022-09-27T01:42:30.800Z,0.6
2022-09-27T01:43:39.162Z,0.6
2022-09-27T01:44:47.784Z,0.6
2022-09-27T01:45:56.205Z,0.6
2022-09-27T01:47:04.580Z,0.6
2022-09-27T01:48:13.172Z,0.8
2022-09-27T01:49:21.581Z,0.8
2022-09-27T01:50:29.996Z,0.8
2022-09-27T01:51:38.586Z,1.6
2022-09-27T01:52:47.014Z,1.6
2022-09-27T01:53:55.424Z,1.6
2022-09-27T01:55:04.030Z,0.5
2022-09-27T01:56:12.461Z,0.5
2022-09-27T01:57:20.888Z,0.5
2022-09-27T01:58:29.493Z,0.9
2022-09-27T01:59:37.890Z,0.9
2022-09-27T02:00:46.288Z,0.9
2022-09-27T02:01:54.911Z,1.4
2022-09-27T02:03:03.333Z,1.4
2022-09-27T02:04:11.772Z,1.4
2022-09-27T02:05:20.345Z,0.5
2022-09-27T02:06:28.728Z,0.5
2022-09-27T02:07:37.138Z,0.5
2022-09-27T02:08:45.743Z,1.3
2022-09-27T02:09:54.133Z,1.3
2022-09-27T02:11:02.536Z,1.3
2022-09-27T02:12:11.133Z,1.1
2022-09-27T02:13:19.535Z,1.1
2022-09-27T02:14:27.977Z,1.1
2022-09-27T02:15:36.606Z,0.6
2022-09-27T02:16:45.020Z,0.6
2022-09-27T02:17:53.372Z,0.6
2022-09-27T02:19:02.007Z,0.5
2022-09-27T02:20:10.404Z,0.5
2022-09-27T02:21:18.794Z,0.5
2022-09-27T02:22:27.396Z,2.5
2022-09-27T02:23:35.852Z,2.5
2022-09-27T02:24:44.246Z,2.5
2022-09-27T02:25:52.856Z,0.5
2022-09-27T02:27:01.251Z,0.5
2022-09-27T02:28:09.655Z,0.5
2022-09-27T02:29:18.292Z,0.7
2022-09-27T02:30:26.693Z,0.7
2022-09-27T02:31:35.112Z,0.7
2022-09-27T02:32:43.658Z,0.4
2022-09-27T02:33:52.057Z,0.4
2022-09-27T02:35:00.475Z,0.4
2022-09-27T02:36:09.087Z,0.5
2022-09-27T02:37:17.492Z,0.5
2022-09-27T02:38:25.935Z,0.5
2022-09-27T02:39:34.518Z,0.4
2022-09-27T02:40:42.960Z,0.4
2022-09-27T02:41:51.327Z,0.4
2022-09-27T02:42:59.911Z,1.3
2022-09-27T02:44:08.331Z,1.3
2022-09-27T02:45:16.724Z,1.3
2022-09-27T02:46:25.391Z,0.5
2022-09-27T02:47:33.726Z,0.5
2022-09-27T02:48:42.125Z,0.5
2022-09-27T02:49:50.720Z,0.8
2022-09-27T02:50:59.113Z,0.8
2022-09-27T02:52:07.524Z,0.8
2022-09-27T02:53:16.113Z,0.6
2022-09-27T02:54:24.515Z,0.6
2022-09-27T02:55:32.912Z,0.6
2022-09-27T02:56:41.516Z,0.6
2022-09-27T02:57:49.911Z,0.6
2022-09-27T02:58:58.304Z,0.6
2022-09-27T03:00:06.920Z,0.9
2022-09-27T03:01:15.397Z,0.9
2022-09-27T03:02:23.800Z,0.9
2022-09-27T03:03:32.348Z,1
2022-09-27T03:04:40.782Z,1
2022-09-27T03:05:49.202Z,1
2022-09-27T03:06:57.797Z,0.4
2022-09-27T03:08:06.198Z,0.4
2022-09-27T03:09:14.643Z,0.4
2022-09-27T03:10:23.229Z,0.7
2022-09-27T03:11:31.617Z,0.7
2022-09-27T03:12:40.035Z,0.7
2022-09-27T03:14:07.128Z,1.1
2022-09-27T03:14:57.051Z,1.1
2022-09-27T03:16:05.428Z,1.1
2022-09-27T03:17:14.082Z,0.9
2022-09-27T03:18:22.480Z,0.9
2022-09-27T03:19:30.839Z,0.9
2022-09-27T03:20:39.458Z,0.5
2022-09-27T03:21:47.856Z,0.5
2022-09-27T03:22:56.222Z,0.5
2022-09-27T03:24:04.855Z,0.5
2022-09-27T03:25:13.259Z,0.5
2022-09-27T03:26:21.680Z,0.5
2022-09-27T03:27:30.283Z,0.5
2022-09-27T03:28:38.686Z,0.5
2022-09-27T03:29:47.093Z,0.5
2022-09-27T03:30:55.736Z,0.5
2022-09-27T03:32:04.061Z,0.5
2022-09-27T03:33:12.508Z,0.5
2022-09-27T03:34:21.098Z,0.6
2022-09-27T03:35:29.483Z,0.6
2022-09-27T03:36:37.857Z,0.6
2022-09-27T03:37:46.471Z,0.3
2022-09-27T03:38:54.878Z,0.3
2022-09-27T03:40:03.296Z,0.3
2022-09-27T03:41:11.892Z,0.5
2022-09-27T03:42:20.294Z,0.5
2022-09-27T03:43:28.748Z,0.5
2022-09-27T03:44:37.311Z,0.7
2022-09-27T03:45:45.744Z,0.7
2022-09-27T03:46:54.124Z,0.7
2022-09-27T03:48:02.726Z,0.6
2022-09-27T03:49:11.282Z,0.6
2022-09-27T03:50:19.589Z,0.6
2022-09-27T03:51:28.170Z,0.4
2022-09-27T03:52:36.578Z,0.4
2022-09-27T03:53:45.021Z,0.4
2022-09-27T03:54:55.503Z,0.5
2022-09-27T03:56:02.015Z,0.5
2022-09-27T03:57:10.427Z,0.5
2022-09-27T03:58:19.021Z,18.5
2022-09-27T03:59:27.409Z,18.5
2022-09-27T04:00:35.785Z,18.5
2022-09-27T04:01:44.411Z,1.5
2022-09-27T04:02:52.829Z,1.5
2022-09-27T04:04:01.194Z,1.5
2022-09-27T04:05:09.784Z,1.8
2022-09-27T04:06:18.217Z,1.8
2022-09-27T04:07:26.589Z,1.8
2022-09-27T04:08:35.227Z,1.2
2022-09-27T04:09:44.791Z,1.2
2022-09-27T04:10:52.027Z,1.2
2022-09-27T04:12:00.627Z,3
2022-09-27T04:13:09.054Z,3
2022-09-27T04:14:17.450Z,3
2022-09-27T04:15:26.047Z,4.3
2022-09-27T04:16:34.500Z,4.3
2022-09-27T04:17:42.848Z,4.3
2022-09-27T04:18:51.461Z,5.9
2022-09-27T04:19:59.855Z,5.9
2022-09-27T04:21:08.254Z,5.9
2022-09-27T04:22:16.904Z,1.4
2022-09-27T04:23:29.133Z,1.4
2022-09-27T04:24:33.688Z,1.4
2022-09-27T04:25:42.308Z,1.1
2022-09-27T04:26:50.687Z,1.1
2022-09-27T04:27:59.091Z,1.1
2022-09-27T04:29:07.714Z,0.5
2022-09-27T04:30:16.098Z,0.5
2022-09-27T04:31:24.590Z,0.5
2022-09-27T04:32:33.147Z,0.9
2022-09-27T04:33:41.532Z,0.9
2022-09-27T04:34:49.928Z,0.9
2022-09-27T04:35:58.533Z,0.9
2022-09-27T04:37:06.922Z,0.9
2022-09-27T04:38:15.425Z,0.9
2022-09-27T04:39:24.004Z,0.7
2022-09-27T04:40:32.509Z,0.7
2022-09-27T04:41:40.840Z,0.7
2022-09-27T04:42:49.466Z,0.6
2022-09-27T04:43:59.314Z,0.6
2022-09-27T04:45:06.294Z,0.6
2022-09-27T04:46:14.920Z,1.6
2022-09-27T04:47:23.426Z,1.6
2022-09-27T04:48:31.808Z,1.6
2022-09-27T04:49:40.434Z,6.5
2022-09-27T04:50:48.827Z,6.5
2022-09-27T04:51:57.278Z,6.5
2022-09-27T04:53:05.843Z,1.2
2022-09-27T04:54:14.275Z,1.2
2022-09-27T04:55:22.662Z,1.2
2022-09-27T04:56:31.230Z,0.6
2022-09-27T04:57:39.677Z,0.6
2022-09-27T04:58:48.116Z,0.6
2022-09-27T04:59:56.762Z,14.7
2022-09-27T05:01:05.164Z,14.7
2022-09-27T05:02:13.645Z,14.7
2022-09-27T05:03:22.158Z,33.400002
2022-09-27T05:04:30.546Z,33.400002
2022-09-27T05:05:38.945Z,33.400002
2022-09-27T05:06:47.539Z,57.700001
2022-09-27T05:07:55.944Z,57.700001
2022-09-27T05:09:04.391Z,57.700001
2022-09-27T05:10:13.020Z,1.2
2022-09-27T05:11:21.372Z,1.2
2022-09-27T05:12:29.762Z,1.2
2022-09-27T05:13:38.389Z,2.7
2022-09-27T05:14:46.777Z,2.7
2022-09-27T05:15:55.178Z,2.7
2022-09-27T05:17:03.826Z,4.8
2022-09-27T05:18:12.184Z,4.8
2022-09-27T05:19:20.617Z,4.8
2022-09-27T05:20:29.364Z,41.900002
2022-09-27T05:21:37.685Z,41.900002
2022-09-27T05:22:46.113Z,41.900002
2022-09-27T05:23:54.717Z,3.1
2022-09-27T05:25:03.101Z,3.1
2022-09-27T05:26:11.577Z,3.1
2022-09-27T05:27:20.146Z,5.3
2022-09-27T05:28:28.580Z,5.3
2022-09-27T05:29:36.961Z,5.3
2022-09-27T05:30:45.685Z,2
2022-09-27T05:31:53.995Z,2
2022-09-27T05:33:02.417Z,2
2022-09-27T05:34:11.014Z,0.7
2022-09-27T05:35:19.405Z,0.7
2022-09-27T05:36:27.802Z,0.7
2022-09-27T05:37:36.414Z,1
2022-09-27T05:38:44.813Z,1
2022-09-27T05:39:53.232Z,1
2022-09-27T05:41:01.922Z,0.9
2022-09-27T05:42:10.295Z,0.9
2022-09-27T05:43:18.689Z,0.9
2022-09-27T05:44:27.313Z,1.5
2022-09-27T05:45:35.698Z,1.5
2022-09-27T05:46:44.107Z,1.5
2022-09-27T05:47:52.784Z,2.9
2022-09-27T05:49:01.167Z,2.9
2022-09-27T05:50:09.561Z,2.9
2022-09-27T05:51:18.215Z,2.2
2022-09-27T05:52:26.608Z,2.2
2022-09-27T05:53:35.010Z,2.2
2022-09-27T05:54:43.613Z,13.4
2022-09-27T05:55:52.020Z,13.4
2022-09-27T05:57:00.463Z,13.4
2022-09-27T05:58:09.097Z,1.8
2022-09-27T05:59:17.494Z,1.8
2022-09-27T06:00:25.924Z,1.8
2022-09-27T06:01:34.526Z,2.1
2022-09-27T06:02:42.938Z,2.1
2022-09-27T06:03:51.300Z,2.1
2022-09-27T06:04:59.950Z,1.7
2022-09-27T06:06:08.379Z,1.7
2022-09-27T06:07:16.813Z,1.7
2022-09-27T06:08:25.373Z,1.1
2022-09-27T06:09:33.777Z,1.1
2022-09-27T06:10:42.204Z,1.1
2022-09-27T06:11:50.823Z,1.8
2022-09-27T06:12:59.240Z,1.8
2022-09-27T06:14:07.689Z,1.8
2022-09-27T06:15:16.271Z,2.9
2022-09-27T06:16:24.738Z,2.9
2022-09-27T06:17:33.108Z,2.9
2022-09-27T06:18:41.708Z,4.9
2022-09-27T06:19:50.106Z,4.9
2022-09-27T06:20:58.502Z,4.9
2022-09-27T06:22:07.115Z,1.7
2022-09-27T06:23:15.570Z,1.7
2022-09-27T06:24:23.939Z,1.7
2022-09-27T06:25:32.580Z,4.2
2022-09-27T06:26:40.984Z,4.2
2022-09-27T06:27:49.364Z,4.2
2022-09-27T06:28:57.969Z,1.9
2022-09-27T06:30:06.373Z,1.9
2022-09-27T06:31:14.797Z,1.9
2022-09-27T06:32:23.375Z,7.7
2022-09-27T06:33:31.763Z,7.7
2022-09-27T06:34:40.168Z,7.7
2022-09-27T06:35:48.796Z,2.1
2022-09-27T06:36:57.201Z,2.1
2022-09-27T06:38:05.614Z,2.1
2022-09-27T06:39:14.293Z,1.6
2022-09-27T06:40:22.670Z,1.6
2022-09-27T06:41:31.020Z,1.6
2022-09-27T06:42:39.637Z,2
2022-09-27T06:43:48.071Z,2
2022-09-27T06:44:56.458Z,2
2022-09-27T06:46:05.125Z,3.1
2022-09-27T06:47:13.487Z,3.1
2022-09-27T06:48:21.856Z,3.1
2022-09-27T06:49:30.461Z,2.1
2022-09-27T06:50:38.862Z,2.1
2022-09-27T06:51:47.255Z,2.1
2022-09-27T06:52:55.886Z,0.8
2022-09-27T06:54:04.284Z,0.8
2022-09-27T06:55:12.679Z,0.8
2022-09-27T06:56:21.291Z,2
2022-09-27T06:57:29.736Z,2
2022-09-27T06:58:38.136Z,2
2022-09-27T06:59:46.748Z,3.6
2022-09-27T07:00:55.216Z,3.6
2022-09-27T07:02:03.689Z,3.6
2022-09-27T07:03:12.252Z,6.5
2022-09-27T07:04:20.659Z,6.5
2022-09-27T07:05:29.077Z,6.5
2022-09-27T07:06:37.684Z,1.5
2022-09-27T07:07:46.084Z,1.5
2022-09-27T07:08:54.488Z,1.5
2022-09-27T07:10:06.362Z,1.8
2022-09-27T07:11:11.500Z,1.8
2022-09-27T07:12:19.908Z,1.8
2022-09-27T07:13:28.532Z,1
2022-09-27T07:14:36.937Z,1
2022-09-27T07:15:45.326Z,1
2022-09-27T07:16:53.967Z,1.7
2022-09-27T07:18:02.361Z,1.7
2022-09-27T07:19:10.741Z,1.7
2022-09-27T07:20:19.327Z,8.3
2022-09-27T07:21:27.728Z,8.3
2022-09-27T07:22:36.167Z,8.3
2022-09-27T07:23:44.771Z,3.3
2022-09-27T07:24:53.152Z,3.3
2022-09-27T07:26:01.558Z,3.3
2022-09-27T07:27:10.135Z,2.6
2022-09-27T07:28:21.940Z,2.6
2022-09-27T07:29:26.942Z,2.6
2022-09-27T07:30:35.591Z,2.5
2022-09-27T07:31:43.957Z,2.5
2022-09-27T07:32:52.346Z,2.5
2022-09-27T07:34:00.989Z,3.4
2022-09-27T07:35:09.450Z,3.4
2022-09-27T07:36:17.802Z,3.4
2022-09-27T07:37:26.416Z,2.5
2022-09-27T07:38:34.832Z,2.5
2022-09-27T07:39:43.230Z,2.5
2022-09-27T07:40:51.873Z,5.3
2022-09-27T07:42:00.249Z,5.3
2022-09-27T07:43:08.643Z,5.3
2022-09-27T07:44:17.253Z,1.8
2022-09-27T07:45:25.646Z,1.8
2022-09-27T07:46:34.087Z,1.8
2022-09-27T07:47:42.692Z,2.4
2022-09-27T07:48:51.093Z,2.4
2022-09-27T07:49:59.533Z,2.4
2022-09-27T07:51:08.102Z,1.8
2022-09-27T07:52:16.521Z,1.8
2022-09-27T07:53:24.894Z,1.8
2022-09-27T07:54:33.529Z,1.6
2022-09-27T07:55:41.936Z,1.6
2022-09-27T07:56:50.345Z,1.6
2022-09-27T07:57:58.965Z,2.4
2022-09-27T07:59:07.354Z,2.4
2022-09-27T08:00:15.777Z,2.4
2022-09-27T08:01:24.454Z,1.3
2022-09-27T08:02:32.850Z,1.3
2022-09-27T08:03:41.175Z,1.3
2022-09-27T08:04:49.786Z,0.5
2022-09-27T08:05:58.201Z,0.5
2022-09-27T08:07:06.602Z,0.5
2022-09-27T08:08:15.199Z,6.1
2022-09-27T08:09:23.622Z,6.1
2022-09-27T08:10:32.020Z,6.1
2022-09-27T08:11:40.629Z,0.8
2022-09-27T08:12:49.040Z,0.8
2022-09-27T08:13:57.443Z,0.8
2022-09-27T08:15:06.028Z,0.7
2022-09-27T08:16:14.486Z,0.7
2022-09-27T08:17:22.860Z,0.7
2022-09-27T08:18:31.447Z,1.7
2022-09-27T08:19:39.844Z,1.7
2022-09-27T08:20:48.300Z,1.7
2022-09-27T08:21:58.949Z,1
2022-09-27T08:23:05.295Z,1
2022-09-27T08:24:13.731Z,1
2022-09-27T08:25:22.328Z,1
2022-09-27T08:26:30.727Z,1
2022-09-27T08:27:39.134Z,1
2022-09-27T08:28:47.743Z,0.9
2022-09-27T08:29:56.125Z,0.9
2022-09-27T08:31:04.544Z,0.9
2022-09-27T08:32:13.171Z,1.7
2022-09-27T08:33:21.575Z,1.7
2022-09-27T08:34:29.965Z,1.7
2022-09-27T08:35:38.591Z,1.7
2022-09-27T08:36:46.990Z,1.7
2022-09-27T08:37:55.419Z,1.7
2022-09-27T08:39:04.021Z,0.5
2022-09-27T08:40:12.416Z,0.5
2022-09-27T08:41:20.874Z,0.5
2022-09-27T08:42:29.455Z,2.1
2022-09-27T08:43:37.900Z,2.1
2022-09-27T08:44:46.283Z,2.1
2022-09-27T08:45:54.965Z,0.2
2022-09-27T08:47:03.345Z,0.2
2022-09-27T08:48:11.739Z,0.2
2022-09-27T08:49:20.336Z,0.8
2022-09-27T08:50:28.746Z,0.8
2022-09-27T08:51:37.149Z,0.8
2022-09-27T08:52:45.727Z,0.7
2022-09-27T08:53:54.150Z,0.7
2022-09-27T08:55:02.537Z,0.7
2022-09-27T08:56:11.131Z,0.4
2022-09-27T08:57:19.525Z,0.4
2022-09-27T08:58:27.973Z,0.4
2022-09-27T08:59:36.551Z,1.3
2022-09-27T09:00:44.997Z,1.3
2022-09-27T09:01:53.439Z,1.3
2022-09-27T09:03:02.008Z,0.3
2022-09-27T09:04:10.402Z,0.3
2022-09-27T09:05:18.818Z,0.3
2022-09-27T09:06:27.427Z,0.6
2022-09-27T09:07:35.826Z,0.6
2022-09-27T09:08:47.493Z,0.6
2022-09-27T09:09:52.974Z,0.2
2022-09-27T09:11:01.343Z,0.2
2022-09-27T09:12:09.775Z,0.2
2022-09-27T09:13:18.342Z,0.4
2022-09-27T09:14:27.313Z,0.4
2022-09-27T09:15:35.149Z,0.4
2022-09-27T09:16:43.802Z,0.7
2022-09-27T09:17:52.158Z,0.7
2022-09-27T09:19:00.562Z,0.7
2022-09-27T09:20:12.255Z,0.5
2022-09-27T09:21:17.554Z,0.5
2022-09-27T09:22:25.982Z,0.5
2022-09-27T09:23:34.572Z,0.6
2022-09-27T09:24:42.992Z,0.6
2022-09-27T09:25:51.381Z,0.6
2022-09-27T09:26:59.976Z,2.7
2022-09-27T09:28:08.403Z,2.7
2022-09-27T09:29:16.810Z,2.7
2022-09-27T09:30:25.398Z,2.5
2022-09-27T09:31:33.836Z,2.5
2022-09-27T09:32:42.200Z,2.5
2022-09-27T09:33:50.782Z,2.3
2022-09-27T09:34:59.203Z,2.3
2022-09-27T09:36:07.664Z,2.3
2022-09-27T09:37:16.254Z,3.6
2022-09-27T09:38:24.665Z,3.6
2022-09-27T09:39:33.103Z,3.6
2022-09-27T09:40:41.783Z,3.2
2022-09-27T09:41:50.149Z,3.2
2022-09-27T09:42:58.508Z,3.2
2022-09-27T09:44:07.160Z,5.9
2022-09-27T09:45:15.535Z,5.9
2022-09-27T09:46:23.960Z,5.9
2022-09-27T09:47:32.588Z,3
2022-09-27T09:48:40.957Z,3
2022-09-27T09:49:49.334Z,3
2022-09-27T09:50:57.878Z,4.6
2022-09-27T09:52:08.876Z,4.6
2022-09-27T09:53:14.610Z,4.6
2022-09-27T09:54:23.175Z,4
2022-09-27T09:55:31.592Z,4
2022-09-27T09:56:40.049Z,4
2022-09-27T09:57:48.649Z,2.5
2022-09-27T09:58:57.049Z,2.5
2022-09-27T10:00:05.398Z,2.5
2022-09-27T10:01:14.064Z,1.2
2022-09-27T10:02:22.492Z,1.2
2022-09-27T10:03:30.856Z,1.2
2022-09-27T10:04:39.469Z,2.5
2022-09-27T10:05:47.929Z,2.5
2022-09-27T10:06:56.381Z,2.5
2022-09-27T10:08:04.956Z,1.2
2022-09-27T10:09:13.436Z,1.2
2022-09-27T10:10:21.850Z,1.2
2022-09-27T10:11:30.405Z,0.9
2022-09-27T10:12:38.816Z,0.9
2022-09-27T10:13:47.273Z,0.9
2022-09-27T10:14:55.886Z,0.8
2022-09-27T10:16:04.335Z,0.8
2022-09-27T10:17:12.701Z,0.8
2022-09-27T10:18:21.292Z,0.6
2022-09-27T10:19:29.705Z,0.6
2022-09-27T10:20:38.093Z,0.6
2022-09-27T10:21:46.737Z,1.9
2022-09-27T10:22:55.145Z,1.9
2022-09-27T10:24:03.528Z,1.9
2022-09-27T10:25:12.137Z,0.8
2022-09-27T10:26:20.562Z,0.8
2022-09-27T10:27:28.955Z,0.8
2022-09-27T10:28:37.566Z,1.1
2022-09-27T10:29:45.994Z,1.1
2022-09-27T10:30:54.352Z,1.1
2022-09-27T10:32:02.971Z,0.9
2022-09-27T10:33:11.366Z,0.9
2022-09-27T10:34:19.759Z,0.9
2022-09-27T10:35:28.346Z,1.9
2022-09-27T10:36:37.643Z,1.9
2022-09-27T10:37:46.053Z,1.9
2022-09-27T10:38:54.703Z,1.1
2022-09-27T10:40:03.129Z,1.1
2022-09-27T10:41:11.490Z,1.1
2022-09-27T10:42:20.077Z,1
2022-09-27T10:43:29.730Z,1
2022-09-27T10:44:36.912Z,1
2022-09-27T10:45:45.581Z,1.7
2022-09-27T10:46:53.966Z,1.7
2022-09-27T10:48:02.450Z,1.7
2022-09-27T10:49:11.102Z,0.4
2022-09-27T10:50:32.730Z,0.4
2022-09-27T10:51:27.959Z,0.4
2022-09-27T10:52:36.587Z,0.8
2022-09-27T10:53:44.968Z,0.8
2022-09-27T10:54:53.375Z,0.8
2022-09-27T10:56:01.983Z,1.2
2022-09-27T10:57:10.378Z,1.2
2022-09-27T10:58:18.799Z,1.2
2022-09-27T10:59:27.471Z,1.2
2022-09-27T11:00:35.858Z,1.2
2022-09-27T11:01:44.295Z,1.2
2022-09-27T11:02:52.899Z,0.7
2022-09-27T11:04:01.300Z,0.7
2022-09-27T11:05:14.041Z,0.7
2022-09-27T11:06:18.365Z,2.1
2022-09-27T11:07:26.772Z,2.1
2022-09-27T11:08:35.184Z,2.1
2022-09-27T11:09:43.795Z,0.7
2022-09-27T11:10:52.223Z,0.7
2022-09-27T11:12:00.641Z,0.7
2022-09-27T11:13:09.250Z,1
2022-09-27T11:14:17.678Z,1
2022-09-27T11:15:26.043Z,1
2022-09-27T11:16:34.670Z,1.7
2022-09-27T11:17:43.072Z,1.7
2022-09-27T11:18:51.484Z,1.7
2022-09-27T11:20:00.119Z,1.3
2022-09-27T11:21:08.457Z,1.3
2022-09-27T11:22:16.841Z,1.3
2022-09-27T11:23:25.473Z,0.5
2022-09-27T11:24:33.882Z,0.5
2022-09-27T11:25:42.251Z,0.5
2022-09-27T11:26:50.861Z,3.8
2022-09-27T11:27:59.252Z,3.8
2022-09-27T11:29:07.655Z,3.8
2022-09-27T11:30:16.285Z,1.7
2022-09-27T11:31:24.727Z,1.7
2022-09-27T11:32:33.114Z,1.7
2022-09-27T11:33:41.752Z,1.6
2022-09-27T11:34:50.134Z,1.6
2022-09-27T11:35:58.512Z,1.6
2022-09-27T11:37:07.137Z,0.9
2022-09-27T11:38:24.992Z,0.9
2022-09-27T11:39:23.947Z,0.9
2022-09-27T11:40:32.568Z,1.1
2022-09-27T11:41:40.971Z,1.1
2022-09-27T11:42:49.356Z,1.1
2022-09-27T11:43:57.994Z,0.9
2022-09-27T11:45:32.295Z,0.9
2022-09-27T11:46:19.098Z,0.9
2022-09-27T11:47:23.546Z,2.3
2022-09-27T11:48:31.855Z,2.3
2022-09-27T11:49:40.294Z,2.3
2022-09-27T11:50:48.887Z,1.7
2022-09-27T11:51:57.294Z,1.7
2022-09-27T11:53:05.693Z,1.7
2022-09-27T11:54:14.376Z,1.8
2022-09-27T11:55:22.714Z,1.8
2022-09-27T11:56:31.093Z,1.8
2022-09-27T11:57:39.701Z,2.3
2022-09-27T11:58:48.144Z,2.3
2022-09-27T11:59:56.510Z,2.3
2022-09-27T12:01:05.136Z,2.1
2022-09-27T12:02:13.664Z,2.1
2022-09-27T12:03:21.978Z,2.1
2022-09-27T12:04:30.592Z,1.9
2022-09-27T12:05:39.012Z,1.9
2022-09-27T12:06:47.410Z,1.9
2022-09-27T12:07:56.025Z,2.4
2022-09-27T12:09:04.462Z,2.4
2022-09-27T12:10:12.871Z,2.4
2022-09-27T12:11:21.488Z,1.2
2022-09-27T12:12:29.945Z,1.2
2022-09-27T12:13:38.320Z,1.2
2022-09-27T12:14:46.991Z,1.3
2022-09-27T12:15:55.388Z,1.3
2022-09-27T12:17:03.818Z,1.3
2022-09-27T12:18:12.404Z,1.4
2022-09-27T12:19:20.800Z,1.4
2022-09-27T12:20:29.266Z,1.4
2022-09-27T12:21:37.921Z,1.5
2022-09-27T12:22:58.445Z,1.5
2022-09-27T12:23:54.677Z,1.5
2022-09-27T12:25:03.311Z,2.2
2022-09-27T12:26:11.712Z,2.2
2022-09-27T12:27:20.152Z,2.2
2022-09-27T12:28:28.724Z,2
2022-09-27T12:29:37.121Z,2
2022-09-27T12:30:45.570Z,2
2022-09-27T12:31:54.184Z,2.1
2022-09-27T12:33:02.603Z,2.1
2022-09-27T12:34:10.999Z,2.1
2022-09-27T12:35:19.596Z,3.3
2022-09-27T12:36:27.996Z,3.3
2022-09-27T12:37:36.430Z,3.3
2022-09-27T12:38:45.000Z,2
2022-09-27T12:39:53.459Z,2
2022-09-27T12:41:01.887Z,2
2022-09-27T12:42:10.528Z,1.9
2022-09-27T12:43:18.920Z,1.9
2022-09-27T12:44:27.352Z,1.9
2022-09-27T12:45:35.956Z,2.3
2022-09-27T12:46:44.789Z,2.3
2022-09-27T12:47:53.386Z,2.3
2022-09-27T12:49:02.036Z,1.9
2022-09-27T12:50:10.447Z,1.9
2022-09-27T12:51:18.857Z,1.9
2022-09-27T12:52:27.539Z,1.6
2022-09-27T12:53:35.981Z,1.6
2022-09-27T12:54:44.315Z,1.6
2022-09-27T12:55:52.970Z,3.6
2022-09-27T12:57:01.438Z,3.6
2022-09-27T12:58:09.817Z,3.6
2022-09-27T12:59:18.445Z,3.7
2022-09-27T13:00:26.853Z,3.7
2022-09-27T13:01:35.339Z,3.7
2022-09-27T13:02:57.633Z,1.5
2022-09-27T13:03:52.302Z,1.5
2022-09-27T13:05:00.902Z,1.5
2022-09-27T13:06:09.488Z,2
2022-09-27T13:07:18.122Z,2
2022-09-27T13:08:27.156Z,2
2022-09-27T13:09:36.490Z,2.1
2022-09-27T13:10:44.885Z,2.1
2022-09-27T13:11:53.314Z,2.1
2022-09-27T13:13:01.965Z,2.8
2022-09-27T13:14:10.368Z,2.8
2022-09-27T13:15:18.747Z,2.8
2022-09-27T13:16:27.422Z,2.2
2022-09-27T13:17:35.749Z,2.2
2022-09-27T13:18:44.184Z,2.2
2022-09-27T13:19:52.800Z,2.8
2022-09-27T13:21:01.211Z,2.8
2022-09-27T13:22:09.614Z,2.8
2022-09-27T13:23:18.262Z,1.8
2022-09-27T13:24:26.679Z,1.8
2022-09-27T13:25:35.082Z,1.8
2022-09-27T13:26:43.681Z,3.5
2022-09-27T13:27:52.130Z,3.5
2022-09-27T13:29:00.554Z,3.5
2022-09-27T13:30:09.156Z,2
2022-09-27T13:31:17.596Z,2
2022-09-27T13:32:25.946Z,2
2022-09-27T13:33:34.576Z,3.1
2022-09-27T13:34:42.982Z,3.1
2022-09-27T13:35:51.366Z,3.1
2022-09-27T13:36:59.989Z,2.2
2022-09-27T13:38:08.413Z,2.2
2022-09-27T13:39:16.912Z,2.2
2022-09-27T13:40:25.483Z,2.8
2022-09-27T13:41:37.815Z,2.8
2022-09-27T13:42:49.182Z,2.8
2022-09-27T13:43:57.822Z,2.1
2022-09-27T13:45:06.229Z,2.1
2022-09-27T13:46:14.768Z,2.1
2022-09-27T13:47:23.330Z,2.3
2022-09-27T13:48:31.840Z,2.3
2022-09-27T13:49:40.259Z,2.3
2022-09-27T13:50:48.882Z,3.7
2022-09-27T13:51:57.272Z,3.7
2022-09-27T13:53:05.669Z,3.7
2022-09-27T13:54:14.314Z,4.1
2022-09-27T13:55:22.707Z,4.1
2022-09-27T13:56:31.108Z,4.1
2022-09-27T13:57:39.770Z,4.3
2022-09-27T13:58:48.125Z,4.3
2022-09-27T13:59:56.555Z,4.3
2022-09-27T14:01:05.291Z,4.1
2022-09-27T14:02:13.595Z,4.1
2022-09-27T14:03:21.982Z,4.1
2022-09-27T14:04:30.625Z,3.2
2022-09-27T14:05:39.037Z,3.2
2022-09-27T14:06:47.460Z,3.2
2022-09-27T14:07:56.080Z,3.9
2022-09-27T14:09:04.484Z,3.9
2022-09-27T14:10:12.864Z,3.9
2022-09-27T14:11:21.572Z,3.9
2022-09-27T14:12:29.939Z,3.9
2022-09-27T14:13:38.387Z,3.9
2022-09-27T14:14:46.994Z,3.1
2022-09-27T14:15:55.469Z,3.1
2022-09-27T14:17:07.806Z,3.1
2022-09-27T14:18:12.514Z,3.5
2022-09-27T14:19:20.854Z,3.5
2022-09-27T14:20:29.244Z,3.5
2022-09-27T14:21:37.882Z,3
2022-09-27T14:22:46.283Z,3
2022-09-27T14:23:54.734Z,3
2022-09-27T14:25:03.346Z,2.8
2022-09-27T14:26:11.850Z,2.8
2022-09-27T14:27:20.232Z,2.8
2022-09-27T14:28:28.866Z,2.4
2022-09-27T14:29:37.302Z,2.4
2022-09-27T15:02:35.607Z,0
2022-09-27T15:03:44.792Z,0
2022-09-27T15:04:52.369Z,0
2022-09-27T15:06:00.883Z,3.6
2022-09-27T15:07:09.232Z,3.6
2022-09-27T15:08:17.653Z,3.6
2022-09-27T15:09:28.662Z,2.9
2022-09-27T15:10:34.607Z,2.9
2022-09-27T15:11:42.997Z,2.9
2022-09-27T15:12:51.574Z,2.6
2022-09-27T15:13:59.978Z,2.6
2022-09-27T15:15:08.375Z,2.6
2022-09-27T15:16:16.958Z,2
2022-09-27T15:17:25.309Z,2
2022-09-27T15:18:33.701Z,2
2022-09-27T15:19:42.272Z,2.7
2022-09-27T15:20:50.669Z,2.7
2022-09-27T15:21:59.043Z,2.7
2022-09-27T15:23:07.599Z,1.7
2022-09-27T15:24:15.981Z,1.7
2022-09-27T15:25:24.350Z,1.7
2022-09-27T15:26:32.969Z,1.7
2022-09-27T15:27:41.397Z,1.7
2022-09-27T15:28:49.736Z,1.7
2022-09-27T15:29:58.360Z,1.3
2022-09-27T15:31:06.827Z,1.3
2022-09-27T15:32:15.095Z,1.3
2022-09-27T15:33:23.672Z,1.1
2022-09-27T15:34:32.102Z,1.1
2022-09-27T15:35:40.423Z,1.1
2022-09-27T15:36:49.004Z,1
2022-09-27T15:37:57.379Z,1
2022-09-27T15:39:05.750Z,1
2022-09-27T15:40:14.338Z,1.5
2022-09-27T15:41:22.710Z,1.5
2022-09-27T15:42:31.044Z,1.5
2022-09-27T15:43:40.149Z,2.5
2022-09-27T15:44:48.820Z,2.5
2022-09-27T15:45:57.207Z,2.5
2022-09-27T15:47:06.398Z,1.4
2022-09-27T15:48:14.789Z,1.4
2022-09-27T15:49:23.171Z,1.4
2022-09-27T15:50:31.816Z,1
2022-09-27T15:51:40.178Z,1
2022-09-27T15:52:48.554Z,1
2022-09-27T15:53:57.106Z,1.5
2022-09-27T15:55:05.489Z,1.5
2022-09-27T15:56:13.886Z,1.5
2022-09-27T15:57:22.483Z,5.9
2022-09-27T15:58:30.879Z,5.9
2022-09-27T15:59:39.310Z,5.9
2022-09-27T16:00:47.988Z,11.7
2022-09-27T16:01:56.373Z,11.7
2022-09-27T16:03:04.783Z,11.7
2022-09-27T16:04:13.372Z,3.5
2022-09-27T16:05:21.795Z,3.5
2022-09-27T16:06:30.232Z,3.5
2022-09-27T16:07:38.833Z,4.2
2022-09-27T16:08:47.223Z,4.2
2022-09-27T16:09:55.679Z,4.2
2022-09-27T16:11:04.274Z,3.1
2022-09-27T16:12:12.718Z,3.1
2022-09-27T16:13:21.093Z,3.1
2022-09-27T16:14:29.727Z,2.7
2022-09-27T16:15:38.161Z,2.7
2022-09-27T16:16:46.563Z,2.7
2022-09-27T16:17:55.163Z,5.7
2022-09-27T16:19:03.582Z,5.7